Time;durP1;ratioP1;P1;durP2;ratioP2;P2;SDS_P1;SDS_P2;PMS_P1;PMS_P2;Temp;Humidity;BMP_temperature;BMP_pressure;BME280_temperature;BME280_humidity;BME280_pressure;Samples;Min_cycle;Max_cycle;Signal;HPM_P1;HPM_P2
2021/06/19 00:00:32;;;;;;;11.73;5.20;;;21.60;99.90;;;;;;4437664;28;656253;-71
2021/06/19 00:03:21;;;;;;;9.40;5.50;;;21.50;99.90;;;;;;4422071;28;659356;-70
2021/06/19 00:06:09;;;;;;;12.73;5.43;;;21.50;99.90;;;;;;4408096;28;656814;-70
2021/06/19 00:08:56;;;;;;;10.67;5.37;;;21.40;99.90;;;;;;4448229;28;658228;-70
2021/06/19 00:11:44;;;;;;;10.23;4.80;;;21.40;99.90;;;;;;4419176;28;657963;-69
2021/06/19 00:14:32;;;;;;;7.53;5.30;;;21.30;99.90;;;;;;4435149;28;657438;-70
2021/06/19 00:17:19;;;;;;;10.17;5.23;;;21.30;99.90;;;;;;4413002;28;657797;-70
2021/06/19 00:20:10;;;;;;;14.00;5.13;;;21.20;99.90;;;;;;4434156;28;657530;-70
2021/06/19 00:22:58;;;;;;;8.10;5.00;;;21.10;99.90;;;;;;4403143;28;657890;-69
2021/06/19 00:25:45;;;;;;;8.83;5.40;;;21.10;99.90;;;;;;4447219;28;656961;-70
2021/06/19 00:28:33;;;;;;;14.10;5.30;;;21.00;99.90;;;;;;4434038;28;656349;-70
2021/06/19 00:31:21;;;;;;;10.67;5.23;;;20.90;99.90;;;;;;4434055;28;658961;-70
2021/06/19 00:34:08;;;;;;;16.13;5.73;;;20.90;99.90;;;;;;4415092;28;657807;-70
2021/06/19 00:36:57;;;;;;;11.60;5.63;;;20.90;99.90;;;;;;4441597;28;657800;-70
2021/06/19 00:39:45;;;;;;;10.43;5.37;;;20.70;99.90;;;;;;4418691;28;658153;-70
2021/06/19 00:42:33;;;;;;;10.32;6.00;;;20.70;99.90;;;;;;4425073;28;657632;-69
2021/06/19 00:45:21;;;;;;;12.20;5.10;;;20.60;99.90;;;;;;4442926;28;658828;-70
2021/06/19 00:48:09;;;;;;;14.53;5.60;;;20.60;99.90;;;;;;4420795;28;657673;-69
2021/06/19 00:50:57;;;;;;;8.57;5.40;;;20.50;99.90;;;;;;4443547;28;658376;-70
2021/06/19 00:53:46;;;;;;;9.73;5.63;;;20.50;99.90;;;;;;4407795;28;657497;-70
2021/06/19 00:56:36;;;;;;;14.20;5.77;;;20.40;99.90;;;;;;4424590;28;656550;-70
2021/06/19 00:59:24;;;;;;;10.93;5.30;;;20.40;99.90;;;;;;4424379;28;658394;-69
2021/06/19 01:02:11;;;;;;;8.47;5.23;;;20.30;99.90;;;;;;4446957;28;658164;-70
2021/06/19 01:04:59;;;;;;;14.33;5.30;;;20.30;99.90;;;;;;4433004;28;656356;-69
2021/06/19 01:07:46;;;;;;;13.70;5.90;;;20.30;99.90;;;;;;4431968;28;657698;-70
2021/06/19 01:10:35;;;;;;;8.70;5.90;;;20.20;99.90;;;;;;4426441;28;657494;-70
2021/06/19 01:13:23;;;;;;;9.87;5.80;;;20.20;99.90;;;;;;4417502;28;656572;-69
2021/06/19 01:16:10;;;;;;;12.30;6.00;;;20.10;99.90;;;;;;4438474;28;657238;-70
2021/06/19 01:18:58;;;;;;;14.57;5.80;;;20.00;99.90;;;;;;4420669;28;657918;-70
2021/06/19 01:21:46;;;;;;;14.50;6.10;;;20.00;99.90;;;;;;4424322;28;659276;-70
2021/06/19 01:24:35;;;;;;;10.90;5.57;;;20.00;99.90;;;;;;4418039;28;657565;-70
2021/06/19 01:27:26;;;;;;;11.90;5.57;;;19.90;99.90;;;;;;4425726;28;657499;-69
2021/06/19 01:30:15;;;;;;;12.60;5.90;;;19.90;99.90;;;;;;4421838;28;657715;-70
2021/06/19 01:33:03;;;;;;;11.73;5.67;;;19.90;99.90;;;;;;4432961;28;657539;-70
2021/06/19 01:35:50;;;;;;;12.60;6.40;;;19.80;99.90;;;;;;4436989;28;657993;-70
2021/06/19 01:38:39;;;;;;;15.23;6.53;;;19.80;99.90;;;;;;4410592;28;657478;-69
2021/06/19 01:41:29;;;;;;;10.33;6.10;;;19.80;99.90;;;;;;4447622;28;658159;-69
2021/06/19 01:44:20;;;;;;;14.70;6.30;;;19.70;99.90;;;;;;4416064;28;657680;-69
2021/06/19 01:47:08;;;;;;;10.80;5.87;;;19.70;99.90;;;;;;4425654;28;658038;-69
2021/06/19 01:49:55;;;;;;;17.63;6.30;;;19.70;99.90;;;;;;4430445;28;658398;-70
2021/06/19 01:52:43;;;;;;;9.43;6.00;;;19.60;99.90;;;;;;4430400;28;657433;-69
2021/06/19 01:55:31;;;;;;;14.20;5.63;;;19.70;99.90;;;;;;4448714;28;657380;-70
2021/06/19 01:58:20;;;;;;;13.20;6.30;;;19.60;99.90;;;;;;4417867;28;657790;-70
2021/06/19 02:01:10;;;;;;;10.67;5.60;;;19.50;99.90;;;;;;4422583;28;657614;-69
2021/06/19 02:03:58;;;;;;;13.50;6.10;;;19.50;99.90;;;;;;4431970;28;657542;-69
2021/06/19 02:06:46;;;;;;;10.93;6.43;;;19.40;99.90;;;;;;4436791;28;658226;-70
2021/06/19 02:09:33;;;;;;;8.07;5.90;;;19.40;99.90;;;;;;4416158;28;657551;-70
2021/06/19 02:12:21;;;;;;;11.47;6.23;;;19.40;99.90;;;;;;4447290;28;657027;-70
2021/06/19 02:15:11;;;;;;;13.00;6.17;;;19.30;99.90;;;;;;4414824;28;657772;-69
2021/06/19 02:17:58;;;;;;;14.77;6.00;;;19.30;99.90;;;;;;4414446;28;657655;-69
2021/06/19 02:20:52;;;;;;;14.37;6.93;;;19.30;99.90;;;;;;4432941;28;659009;-70
2021/06/19 02:23:39;;;;;;;14.07;6.20;;;19.20;99.90;;;;;;4394359;28;658043;-69
2021/06/19 02:26:27;;;;;;;14.73;6.17;;;19.20;99.90;;;;;;4433082;28;657584;-69
2021/06/19 02:29:14;;;;;;;10.67;5.63;;;19.20;99.90;;;;;;4395958;28;658856;-69
2021/06/19 02:32:04;;;;;;;11.43;6.00;;;19.20;99.90;;;;;;4421001;28;658265;-69
2021/06/19 02:34:52;;;;;;;14.67;6.07;;;19.20;99.90;;;;;;4398918;28;657558;-69
2021/06/19 02:37:39;;;;;;;18.00;5.93;;;19.20;99.90;;;;;;4405653;28;659167;-69
2021/06/19 02:40:27;;;;;;;8.63;5.67;;;19.20;99.90;;;;;;4422288;28;657848;-69
2021/06/19 02:43:15;;;;;;;12.67;6.13;;;19.10;99.90;;;;;;4402727;28;657491;-69
2021/06/19 02:46:03;;;;;;;10.70;5.60;;;19.10;99.90;;;;;;4406065;28;657515;-69
2021/06/19 02:48:52;;;;;;;10.50;5.60;;;19.10;99.90;;;;;;4415167;28;659599;-69
2021/06/19 02:51:39;;;;;;;10.23;5.67;;;19.10;99.90;;;;;;4396589;28;658326;-69
2021/06/19 02:54:27;;;;;;;9.10;5.57;;;19.10;99.90;;;;;;4430939;28;657699;-69
2021/06/19 02:57:15;;;;;;;13.37;5.40;;;19.10;99.90;;;;;;4398145;28;658383;-69
2021/06/19 03:00:03;;;;;;;11.20;6.00;;;19.10;99.90;;;;;;4411613;28;658153;-68
2021/06/19 03:02:51;;;;;;;8.17;5.37;;;19.00;99.90;;;;;;4420746;28;658829;-69
2021/06/19 03:05:40;;;;;;;9.70;5.50;;;19.00;99.90;;;;;;4412193;28;656482;-69
2021/06/19 03:08:28;;;;;;;10.20;5.73;;;18.90;99.90;;;;;;4409623;28;656509;-68
2021/06/19 03:11:16;;;;;;;8.17;6.07;;;18.90;99.90;;;;;;4417288;28;658834;-69
2021/06/19 03:14:03;;;;;;;11.10;6.10;;;18.80;99.90;;;;;;4407244;28;656690;-70
2021/06/19 03:16:51;;;;;;;12.03;5.50;;;18.70;99.90;;;;;;4420826;28;657919;-69
2021/06/19 03:19:39;;;;;;;8.20;5.73;;;18.70;99.90;;;;;;4410065;28;658185;-69
2021/06/19 03:22:28;;;;;;;9.47;5.80;;;18.80;99.90;;;;;;4429480;28;656905;-69
2021/06/19 03:25:16;;;;;;;11.27;5.73;;;18.80;99.90;;;;;;4393528;28;658002;-69
2021/06/19 03:28:05;;;;;;;8.93;5.40;;;18.70;99.90;;;;;;4406860;28;657836;-69
2021/06/19 03:30:54;;;;;;;11.13;6.13;;;18.80;99.90;;;;;;4416389;28;656655;-68
2021/06/19 03:33:42;;;;;;;12.43;5.87;;;18.70;99.90;;;;;;4435596;28;658053;-69
2021/06/19 03:36:30;;;;;;;8.63;5.37;;;18.70;99.90;;;;;;4413489;28;658445;-69
2021/06/19 03:39:18;;;;;;;8.47;5.60;;;18.80;99.90;;;;;;4432892;28;656408;-69
2021/06/19 03:42:07;;;;;;;17.73;6.20;;;18.90;99.90;;;;;;4411018;28;657423;-69
2021/06/19 03:44:54;;;;;;;13.63;5.53;;;19.00;99.90;;;;;;4393135;28;658603;-69
2021/06/19 03:47:42;;;;;;;16.73;6.03;;;19.20;99.90;;;;;;4432314;28;658307;-69
2021/06/19 03:50:30;;;;;;;13.00;6.13;;;19.20;99.90;;;;;;4409610;28;658684;-69
2021/06/19 03:53:18;;;;;;;10.00;6.00;;;19.30;99.90;;;;;;4413043;28;657355;-69
2021/06/19 03:56:07;;;;;;;10.60;5.73;;;19.40;99.90;;;;;;4436492;28;658365;-69
2021/06/19 03:58:55;;;;;;;12.87;6.50;;;19.50;99.90;;;;;;4413954;28;658039;-69
2021/06/19 04:01:42;;;;;;;13.87;6.07;;;19.60;99.90;;;;;;4440984;28;657435;-69
2021/06/19 04:04:30;;;;;;;10.00;6.70;;;19.60;99.90;;;;;;4420555;28;657472;-69
2021/06/19 04:07:18;;;;;;;14.20;7.07;;;19.60;99.90;;;;;;4426765;28;657362;-69
2021/06/19 04:10:07;;;;;;;8.63;6.40;;;19.70;99.90;;;;;;4447842;28;659720;-69
2021/06/19 04:12:56;;;;;;;13.50;6.33;;;19.80;99.90;;;;;;4426807;28;658372;-69
2021/06/19 04:15:43;;;;;;;12.67;6.87;;;19.80;99.90;;;;;;4426057;28;657439;-69
2021/06/19 04:18:31;;;;;;;10.67;6.37;;;19.80;99.90;;;;;;4436554;28;658669;-69
2021/06/19 04:21:19;;;;;;;11.23;6.50;;;19.90;99.90;;;;;;4423835;28;657692;-69
2021/06/19 04:24:07;;;;;;;12.13;6.60;;;19.90;99.90;;;;;;4440576;28;658416;-69
2021/06/19 04:26:55;;;;;;;13.63;6.20;;;20.00;99.90;;;;;;4424286;28;658659;-69
2021/06/19 04:29:44;;;;;;;10.30;6.10;;;20.10;99.90;;;;;;4436018;28;657633;-69
2021/06/19 04:32:32;;;;;;;10.63;6.57;;;20.20;99.90;;;;;;4427817;28;657875;-69
2021/06/19 04:35:20;;;;;;;9.50;6.17;;;20.30;99.90;;;;;;4412874;28;659203;-69
2021/06/19 04:38:08;;;;;;;11.77;6.37;;;20.40;99.90;;;;;;4435986;28;656636;-68
2021/06/19 04:40:58;;;;;;;10.10;6.15;;;20.50;99.90;;;;;;4437389;28;657945;-69
2021/06/19 04:44:06;;;;;;;8.30;5.90;;;20.50;99.90;;;;;;4412212;28;658251;-69
2021/06/19 04:46:55;;;;;;;10.00;6.70;;;20.60;99.90;;;;;;4405657;28;657205;-69
2021/06/19 04:49:43;;;;;;;9.77;5.70;;;20.80;99.90;;;;;;4428589;28;657844;-69
2021/06/19 04:52:33;;;;;;;8.43;6.20;;;20.80;99.90;;;;;;4437102;28;657904;-69
2021/06/19 04:55:21;;;;;;;11.77;6.23;;;21.00;99.90;;;;;;4414143;28;657616;-69
2021/06/19 04:58:09;;;;;;;8.60;6.13;;;21.00;99.90;;;;;;4409645;28;657504;-69
2021/06/19 05:00:57;;;;;;;8.90;5.90;;;21.20;99.90;;;;;;4442511;28;655993;-69
2021/06/19 05:03:46;;;;;;;12.67;6.60;;;21.30;99.90;;;;;;4423973;28;657774;-69
2021/06/19 05:06:35;;;;;;;9.00;6.10;;;21.40;99.90;;;;;;4415322;28;657781;-69
2021/06/19 05:09:23;;;;;;;7.80;5.75;;;21.50;99.90;;;;;;4425821;28;656561;-69
2021/06/19 05:12:12;;;;;;;10.30;5.83;;;21.60;99.90;;;;;;4443438;28;657835;-69
2021/06/19 05:15:00;;;;;;;8.30;5.90;;;21.70;99.90;;;;;;4422553;28;658712;-69
2021/06/19 05:17:48;;;;;;;9.03;5.20;;;21.80;99.90;;;;;;4420309;28;656329;-68
2021/06/19 05:20:37;;;;;;;10.50;5.10;;;21.90;99.90;;;;;;4448689;28;657551;-69
2021/06/19 05:23:25;;;;;;;6.77;5.30;;;22.00;99.90;;;;;;4413860;28;659093;-69
2021/06/19 05:26:13;;;;;;;14.83;5.20;;;22.20;99.90;;;;;;4444389;28;657016;-69
2021/06/19 05:29:01;;;;;;;7.87;4.87;;;22.30;99.90;;;;;;4449996;28;658061;-69
2021/06/19 05:31:48;;;;;;;7.97;5.00;;;22.40;99.90;;;;;;4427058;28;656710;-69
2021/06/19 05:34:37;;;;;;;8.90;5.23;;;22.50;99.90;;;;;;4448550;28;658249;-69
2021/06/19 05:37:26;;;;;;;7.27;4.40;;;22.70;99.90;;;;;;4432965;28;656659;-69
2021/06/19 05:40:13;;;;;;;6.07;4.57;;;22.70;99.90;;;;;;4428958;28;656290;-69
2021/06/19 05:43:01;;;;;;;8.57;4.97;;;22.80;99.90;;;;;;4443507;28;657367;-70
2021/06/19 05:45:51;;;;;;;6.77;4.60;;;22.90;99.90;;;;;;4415987;28;656172;-68
2021/06/19 05:48:39;;;;;;;9.67;5.13;;;23.00;99.90;;;;;;4413497;28;656955;-68
2021/06/19 05:51:27;;;;;;;6.43;4.93;;;23.20;99.90;;;;;;4439513;28;656879;-68
2021/06/19 05:54:16;;;;;;;9.97;4.70;;;23.30;99.90;;;;;;4416475;28;658332;-68
2021/06/19 05:57:04;;;;;;;6.87;4.60;;;23.30;99.90;;;;;;4430587;28;656482;-68
2021/06/19 05:59:52;;;;;;;6.73;4.53;;;23.30;99.90;;;;;;4436550;28;656967;-68
2021/06/19 06:02:41;;;;;;;12.50;4.63;;;23.50;99.90;;;;;;4431277;28;657439;-69
2021/06/19 06:05:29;;;;;;;9.70;4.73;;;23.60;99.90;;;;;;4425392;28;657832;-68
2021/06/19 06:08:18;;;;;;;7.90;4.33;;;23.70;99.90;;;;;;4438925;28;657398;-69
2021/06/19 06:11:08;;;;;;;10.03;4.97;;;23.80;99.90;;;;;;4423979;28;657373;-68
2021/06/19 06:13:55;;;;;;;9.67;4.77;;;23.80;99.90;;;;;;4411612;28;658731;-69
2021/06/19 06:16:43;;;;;;;8.57;5.10;;;23.90;99.90;;;;;;4419494;28;656602;-69
2021/06/19 06:19:31;;;;;;;7.40;4.73;;;24.00;99.90;;;;;;4438915;28;657331;-69
2021/06/19 06:22:18;;;;;;;10.67;4.53;;;24.10;99.90;;;;;;4426144;28;656455;-69
2021/06/19 06:25:06;;;;;;;8.27;4.77;;;24.30;99.90;;;;;;4426313;28;658753;-69
2021/06/19 06:27:56;;;;;;;7.53;4.50;;;24.30;99.90;;;;;;4410772;28;656304;-69
2021/06/19 06:30:43;;;;;;;6.93;4.47;;;24.50;99.90;;;;;;4423172;28;656597;-69
2021/06/19 06:33:31;;;;;;;7.23;4.63;;;24.50;99.90;;;;;;4432887;28;657503;-70
2021/06/19 06:36:19;;;;;;;9.77;5.10;;;24.60;99.90;;;;;;4427504;28;656365;-69
2021/06/19 06:39:13;;;;;;;12.10;4.77;;;24.70;99.90;;;;;;4433893;28;656833;-69
2021/06/19 06:45:34;;;;;;;15.63;4.87;;;24.90;99.90;;;;;;4392974;28;657419;-69
2021/06/19 06:48:23;;;;;;;7.83;4.30;;;25.00;99.90;;;;;;4432482;28;658276;-69
2021/06/19 06:51:10;;;;;;;10.27;4.83;;;25.10;99.90;;;;;;4412278;28;658117;-69
2021/06/19 06:53:58;;;;;;;8.87;4.10;;;25.20;99.90;;;;;;4414165;28;657860;-68
2021/06/19 06:56:46;;;;;;;10.20;4.73;;;25.10;99.90;;;;;;4433828;28;658513;-69
2021/06/19 06:59:34;;;;;;;8.07;4.97;;;25.20;99.90;;;;;;4412567;28;657807;-69
2021/06/19 07:02:23;;;;;;;8.27;5.00;;;25.20;99.90;;;;;;4434585;28;656782;-69
2021/06/19 07:05:11;;;;;;;6.63;4.43;;;25.30;99.90;;;;;;4411721;28;657121;-69
2021/06/19 07:07:59;;;;;;;6.00;4.67;;;25.40;99.90;;;;;;4410402;28;657242;-69
2021/06/19 07:10:47;;;;;;;5.53;4.70;;;25.60;99.90;;;;;;4432889;28;657076;-69
2021/06/19 07:13:35;;;;;;;11.60;4.70;;;25.70;99.90;;;;;;4413151;28;657375;-70
2021/06/19 07:16:23;;;;;;;11.40;4.65;;;25.90;99.90;;;;;;4431483;28;657224;-69
2021/06/19 07:19:12;;;;;;;11.40;4.70;;;26.10;99.90;;;;;;4444445;28;657761;-70
2021/06/19 07:22:00;;;;;;;8.00;4.78;;;26.30;99.90;;;;;;4410901;28;659598;-70
2021/06/19 07:24:48;;;;;;;6.43;4.47;;;26.40;99.90;;;;;;4443789;28;656721;-69
2021/06/19 07:27:36;;;;;;;7.22;4.50;;;26.50;99.90;;;;;;4437118;28;657932;-69
2021/06/19 07:30:24;;;;;;;13.60;4.57;;;26.60;99.90;;;;;;4414887;28;656911;-69
2021/06/19 07:33:11;;;;;;;6.72;4.50;;;26.90;99.90;;;;;;4435311;28;658325;-69
2021/06/19 07:36:33;;;;;;;8.10;4.68;;;26.90;99.90;;;;;;4411290;28;656509;-69
2021/06/19 07:39:38;;;;;;;6.35;4.50;;;27.00;99.90;;;;;;4416212;28;657172;-69
2021/06/19 07:42:31;;;;;;;5.28;4.40;;;27.00;99.90;;;;;;4408218;28;657237;-70
2021/06/19 07:45:18;;;;;;;10.52;4.30;;;27.30;99.90;;;;;;4386804;28;657401;-69
2021/06/19 07:48:07;;;;;;;12.30;4.45;;;27.40;99.90;;;;;;4437773;28;658421;-70
2021/06/19 07:50:58;;;;;;;5.30;4.05;;;27.50;99.90;;;;;;4395457;28;658439;-70
2021/06/19 07:53:48;;;;;;;9.35;4.40;;;27.60;99.90;;;;;;4409881;28;657718;-70
2021/06/19 07:56:37;;;;;;;9.00;4.85;;;27.70;99.90;;;;;;4410721;28;657496;-71
2021/06/19 07:59:24;;;;;;;6.38;4.50;;;27.70;99.90;;;;;;4413649;28;656722;-69
2021/06/19 08:02:12;;;;;;;8.80;4.20;;;27.80;99.90;;;;;;4437033;28;657214;-69
2021/06/19 08:05:00;;;;;;;12.63;4.40;;;27.90;99.90;;;;;;4410481;28;658100;-69
2021/06/19 08:07:48;;;;;;;7.75;4.10;;;27.90;99.90;;;;;;4428666;28;657710;-69
2021/06/19 08:10:37;;;;;;;10.00;5.43;;;28.00;99.90;;;;;;4447158;28;658471;-70
2021/06/19 08:13:24;;;;;;;7.97;3.90;;;28.10;99.90;;;;;;4420532;28;658192;-70
2021/06/19 08:16:15;;;;;;;9.38;3.50;;;28.20;99.90;;;;;;4440348;28;656675;-70
2021/06/19 08:19:03;;;;;;;14.60;4.50;;;28.30;99.90;;;;;;4394166;28;656905;-69
2021/06/19 08:21:51;;;;;;;7.70;3.50;;;28.40;99.90;;;;;;4439741;28;658440;-69
2021/06/19 08:24:38;;;;;;;8.30;3.88;;;28.50;99.90;;;;;;4421175;28;656882;-69
2021/06/19 08:27:27;;;;;;;10.00;3.63;;;28.50;99.90;;;;;;4431783;28;656983;-69
2021/06/19 08:30:16;;;;;;;8.02;3.30;;;28.60;99.90;;;;;;4413774;28;658108;-70
2021/06/19 08:33:03;;;;;;;8.35;4.13;;;28.70;99.90;;;;;;4394184;28;657012;-70
2021/06/19 08:35:51;;;;;;;5.18;3.17;;;28.80;99.90;;;;;;4418791;28;657650;-69
2021/06/19 08:38:39;;;;;;;12.55;3.38;;;29.00;99.90;;;;;;4395355;28;657145;-69
2021/06/19 08:41:26;;;;;;;8.43;3.00;;;29.10;99.90;;;;;;4417460;28;657749;-69
2021/06/19 08:44:20;;;;;;;7.05;2.88;;;29.10;99.90;;;;;;4399810;28;656881;-70
2021/06/19 08:47:08;;;;;;;10.18;3.20;;;29.10;99.90;;;;;;4376532;28;657912;-69
2021/06/19 08:49:56;;;;;;;10.57;3.50;;;29.20;99.90;;;;;;4419545;28;659307;-69
2021/06/19 08:52:45;;;;;;;8.10;3.53;;;29.20;99.90;;;;;;4405008;28;657527;-70
2021/06/19 08:55:32;;;;;;;7.22;3.33;;;29.30;99.90;;;;;;4433561;28;656254;-70
2021/06/19 08:58:20;;;;;;;6.85;3.60;;;29.40;99.90;;;;;;4415734;28;658097;-70
2021/06/19 09:01:09;;;;;;;8.75;3.38;;;29.50;99.90;;;;;;4404447;28;656514;-69
2021/06/19 09:03:57;;;;;;;7.80;3.65;;;29.90;99.90;;;;;;4418539;28;656485;-71
2021/06/19 09:06:45;;;;;;;10.52;3.40;;;29.80;99.90;;;;;;4399274;28;658076;-71
2021/06/19 09:09:33;;;;;;;6.50;3.75;;;30.10;99.90;;;;;;4407652;28;657863;-70
2021/06/19 09:12:21;;;;;;;6.13;3.50;;;30.00;99.90;;;;;;4425128;28;657090;-71
2021/06/19 09:15:16;;;;;;;14.40;3.63;;;29.90;99.90;;;;;;4404971;28;656466;-70
2021/06/19 09:18:18;;;;;;;5.65;3.45;;;30.10;99.90;;;;;;4410799;28;657413;-70
2021/06/19 09:21:12;;;;;;;3.40;3.10;;;30.30;99.90;;;;;;4413004;28;657028;-71
2021/06/19 09:24:00;;;;;;;8.30;3.13;;;30.30;99.90;;;;;;4416610;28;657131;-71
2021/06/19 09:26:48;;;;;;;7.00;2.83;;;30.40;99.70;;;;;;4428342;28;656607;-68
2021/06/19 09:29:36;;;;;;;4.78;2.60;;;30.50;99.70;;;;;;4453557;28;658274;-70
2021/06/19 09:32:27;;;;;;;5.35;3.03;;;30.80;97.90;;;;;;4434293;28;656680;-70
2021/06/19 09:35:17;;;;;;;11.57;3.00;;;30.50;96.20;;;;;;4430615;28;657733;-70
2021/06/19 09:38:06;;;;;;;4.82;3.05;;;30.70;97.10;;;;;;4427382;28;659298;-70
2021/06/19 09:40:53;;;;;;;4.63;2.90;;;30.80;96.10;;;;;;4434213;28;656929;-70
2021/06/19 09:43:45;;;;;;;5.43;3.10;;;30.90;95.70;;;;;;4453206;28;657790;-70
2021/06/19 09:46:33;;;;;;;4.28;3.10;;;30.90;95.40;;;;;;4415797;28;656399;-69
2021/06/19 09:49:21;;;;;;;5.45;3.30;;;31.00;95.50;;;;;;4453294;28;657368;-70
2021/06/19 09:52:10;;;;;;;7.18;3.10;;;31.20;95.00;;;;;;4434128;28;656638;-70
2021/06/19 09:54:59;;;;;;;6.47;3.20;;;31.30;96.00;;;;;;4433530;28;656586;-70
2021/06/19 09:57:47;;;;;;;7.80;3.42;;;31.30;94.20;;;;;;4452863;28;656698;-70
2021/06/19 10:00:38;;;;;;;9.13;3.42;;;31.60;94.80;;;;;;4430150;28;657929;-70
2021/06/19 10:03:26;;;;;;;7.53;3.17;;;31.70;93.30;;;;;;4429883;28;657077;-70
2021/06/19 10:06:14;;;;;;;7.22;3.30;;;31.80;92.40;;;;;;4434161;28;656991;-70
2021/06/19 10:09:03;;;;;;;6.20;3.30;;;31.70;90.60;;;;;;4452012;28;656859;-70
2021/06/19 10:11:53;;;;;;;6.90;3.13;;;31.90;90.40;;;;;;4429507;28;657709;-70
2021/06/19 10:14:41;;;;;;;8.23;3.83;;;31.90;89.10;;;;;;4429867;28;657036;-69
2021/06/19 10:17:32;;;;;;;7.82;3.85;;;32.30;91.10;;;;;;4433502;28;656603;-70
2021/06/19 10:20:25;;;;;;;4.55;3.40;;;32.50;90.00;;;;;;4429836;28;657993;-70
2021/06/19 10:23:18;;;;;;;7.68;3.20;;;32.40;90.10;;;;;;4414762;28;656625;-69
2021/06/19 10:26:07;;;;;;;4.78;3.10;;;32.60;85.50;;;;;;4429507;28;657597;-70
2021/06/19 10:28:57;;;;;;;4.77;2.60;;;32.80;89.40;;;;;;4429540;28;657784;-70
2021/06/19 10:31:46;;;;;;;4.60;3.10;;;32.90;78.50;;;;;;4433194;28;657455;-70
2021/06/19 10:34:35;;;;;;;6.70;3.30;;;33.10;75.90;;;;;;4431236;28;656845;-70
2021/06/19 10:37:30;;;;;;;5.85;3.35;;;33.20;75.20;;;;;;4449869;28;656615;-70
2021/06/19 10:40:24;;;;;;;6.10;3.23;;;33.40;74.50;;;;;;4409359;28;656449;-69
2021/06/19 10:43:22;;;;;;;6.43;3.47;;;33.10;75.70;;;;;;4428660;28;657709;-70
2021/06/19 10:46:30;;;;;;;6.03;3.33;;;33.10;70.90;;;;;;4406293;28;657632;-70
2021/06/19 10:49:37;;;;;;;4.47;3.67;;;33.00;70.80;;;;;;4415704;28;656297;-69
2021/06/19 10:52:35;;;;;;;5.03;3.25;;;33.30;71.90;;;;;;4432961;28;656496;-70
2021/06/19 10:55:27;;;;;;;5.05;3.45;;;33.50;70.10;;;;;;4421633;28;656752;-69
2021/06/19 10:58:18;;;;;;;4.63;3.40;;;33.40;68.30;;;;;;4429121;28;658088;-70
2021/06/19 11:01:08;;;;;;;5.63;3.23;;;33.50;67.70;;;;;;4428848;28;657544;-70
2021/06/19 11:03:57;;;;;;;7.70;3.55;;;33.50;63.30;;;;;;4428880;28;657950;-70
2021/06/19 11:06:45;;;;;;;4.28;2.83;;;33.50;66.30;;;;;;4432064;28;657588;-70
2021/06/19 11:09:37;;;;;;;7.43;2.88;;;33.70;66.60;;;;;;4432391;28;656377;-69
2021/06/19 11:12:25;;;;;;;5.00;2.65;;;33.50;64.60;;;;;;4432568;28;657665;-70
2021/06/19 11:15:19;;;;;;;5.95;2.97;;;33.60;60.90;;;;;;4432893;28;657284;-69
2021/06/19 11:18:09;;;;;;;5.30;2.90;;;34.00;63.90;;;;;;4428463;28;656546;-70
2021/06/19 11:21:10;;;;;;;5.25;2.42;;;33.90;62.40;;;;;;4428767;28;656917;-70
2021/06/19 11:24:11;;;;;;;3.78;2.53;;;33.80;58.40;;;;;;4447467;28;655979;-69
2021/06/19 11:27:00;;;;;;;3.70;2.57;;;33.90;59.50;;;;;;4409411;28;656602;-70
2021/06/19 11:29:48;;;;;;;3.67;2.80;;;33.90;58.60;;;;;;4419747;28;657617;-69
2021/06/19 11:32:36;;;;;;;4.90;2.70;;;33.80;58.50;;;;;;4451818;28;657875;-70
2021/06/19 11:35:26;;;;;;;3.85;2.47;;;34.00;59.50;;;;;;4432001;28;656624;-70
2021/06/19 11:38:14;;;;;;;5.63;2.75;;;34.20;61.00;;;;;;4432344;28;656334;-70
2021/06/19 11:41:01;;;;;;;5.28;3.10;;;34.40;61.10;;;;;;4450345;28;657083;-70
2021/06/19 11:43:49;;;;;;;4.47;3.03;;;34.50;59.60;;;;;;4432255;28;657087;-70
2021/06/19 11:46:37;;;;;;;5.57;2.72;;;34.50;60.50;;;;;;4450958;28;657189;-70
2021/06/19 11:49:39;;;;;;;7.30;2.70;;;34.60;60.00;;;;;;4431880;28;656434;-70
2021/06/19 11:52:28;;;;;;;8.63;2.70;;;34.50;58.30;;;;;;4422057;28;657446;-70
2021/06/19 11:55:22;;;;;;;4.05;2.60;;;34.50;59.00;;;;;;4427022;28;657815;-69
2021/06/19 11:58:10;;;;;;;6.88;3.10;;;34.50;60.50;;;;;;4404880;28;657069;-70
2021/06/19 12:00:59;;;;;;;3.00;2.53;;;34.70;60.50;;;;;;4446676;28;656192;-69
2021/06/19 12:03:47;;;;;;;5.50;2.85;;;34.60;59.00;;;;;;4450660;28;656871;-70
2021/06/19 12:06:36;;;;;;;6.22;2.97;;;34.70;60.10;;;;;;4430912;28;656703;-70
2021/06/19 12:09:26;;;;;;;3.83;2.50;;;34.80;60.00;;;;;;4431496;28;656767;-70
2021/06/19 12:12:15;;;;;;;3.47;2.58;;;34.60;59.00;;;;;;4429376;28;656735;-70
2021/06/19 12:15:03;;;;;;;5.60;2.33;;;34.80;57.90;;;;;;4444785;28;656782;-69
2021/06/19 12:17:51;;;;;;;6.75;2.80;;;35.10;56.60;;;;;;4450398;28;657215;-70
2021/06/19 12:20:39;;;;;;;6.45;3.03;;;35.10;54.70;;;;;;4431528;28;657037;-69
2021/06/19 12:23:34;;;;;;;2.85;2.55;;;35.00;55.70;;;;;;4450675;28;656705;-70
2021/06/19 12:26:23;;;;;;;4.77;2.83;;;35.00;57.40;;;;;;4427242;28;657232;-69
2021/06/19 12:29:11;;;;;;;6.22;2.30;;;35.00;56.50;;;;;;4427993;28;657149;-69
2021/06/19 12:31:58;;;;;;;4.72;2.70;;;35.10;56.10;;;;;;4429921;28;656624;-69
2021/06/19 12:34:46;;;;;;;6.47;2.65;;;35.40;56.00;;;;;;4450360;28;658131;-70
2021/06/19 12:37:35;;;;;;;5.73;2.90;;;35.60;55.50;;;;;;4431458;28;656679;-71
2021/06/19 12:40:24;;;;;;;7.25;2.78;;;35.60;54.90;;;;;;4441093;28;656575;-69
2021/06/19 12:43:14;;;;;;;4.47;2.43;;;35.50;54.20;;;;;;4449820;28;656754;-69
2021/06/19 12:46:02;;;;;;;4.93;2.72;;;35.50;53.90;;;;;;4427362;28;657175;-70
2021/06/19 12:48:50;;;;;;;4.10;2.53;;;35.40;54.50;;;;;;4431273;28;658209;-69
2021/06/19 12:51:39;;;;;;;4.93;2.53;;;35.30;53.30;;;;;;4440295;28;656471;-69
2021/06/19 12:54:27;;;;;;;5.65;2.55;;;35.30;52.70;;;;;;4450238;28;657175;-69
2021/06/19 12:57:17;;;;;;;3.13;2.60;;;35.40;52.60;;;;;;4431433;28;657348;-69
2021/06/19 13:00:08;;;;;;;6.18;2.38;;;35.70;51.70;;;;;;4431486;28;657381;-69
2021/06/19 13:02:56;;;;;;;6.35;2.80;;;36.00;53.90;;;;;;4427478;28;657152;-70
2021/06/19 13:05:54;;;;;;;4.93;2.67;;;35.50;52.60;;;;;;4431510;28;656580;-70
2021/06/19 13:08:42;;;;;;;7.85;2.80;;;35.30;55.20;;;;;;4427656;28;656574;-69
2021/06/19 13:11:32;;;;;;;2.53;2.33;;;35.40;54.40;;;;;;4431231;28;657710;-69
2021/06/19 13:14:25;;;;;;;7.00;2.63;;;35.50;52.80;;;;;;4430733;28;657270;-70
2021/06/19 13:17:18;;;;;;;7.33;2.63;;;35.70;53.70;;;;;;4411461;28;657313;-69
2021/06/19 13:20:06;;;;;;;3.47;2.50;;;35.90;53.10;;;;;;4430543;28;656825;-71
2021/06/19 13:23:07;;;;;;;8.70;2.97;;;35.70;53.40;;;;;;4430268;28;656753;-70
2021/06/19 13:26:06;;;;;;;3.50;2.60;;;35.50;51.70;;;;;;4407172;28;657728;-70
2021/06/19 13:29:02;;;;;;;2.88;2.58;;;35.50;52.80;;;;;;4434341;28;656588;-70
2021/06/19 13:31:49;;;;;;;3.00;2.63;;;35.40;51.70;;;;;;4434217;28;656546;-70
2021/06/19 13:34:39;;;;;;;6.90;3.30;;;35.60;52.40;;;;;;4452540;28;656818;-70
2021/06/19 13:37:35;;;;;;;7.55;2.97;;;35.80;51.70;;;;;;4430140;28;656540;-70
2021/06/19 13:40:26;;;;;;;4.90;2.70;;;35.80;52.00;;;;;;4411024;28;657038;-69
2021/06/19 13:43:14;;;;;;;5.15;2.80;;;35.80;51.90;;;;;;4433861;28;656641;-70
2021/06/19 13:46:01;;;;;;;5.10;2.75;;;35.90;50.90;;;;;;4452241;28;656791;-70
2021/06/19 13:48:49;;;;;;;3.60;2.90;;;35.70;51.00;;;;;;4434100;28;657045;-70
2021/06/19 13:51:38;;;;;;;14.20;3.30;;;36.00;51.80;;;;;;4447348;28;656929;-69
2021/06/19 13:54:27;;;;;;;4.93;3.13;;;36.00;52.60;;;;;;4428845;28;658341;-70
2021/06/19 13:57:16;;;;;;;3.00;2.75;;;36.00;50.40;;;;;;4433788;28;656769;-70
2021/06/19 14:00:05;;;;;;;3.70;3.00;;;36.00;50.10;;;;;;4433494;28;656308;-70
2021/06/19 14:02:53;;;;;;;4.43;2.70;;;36.00;51.20;;;;;;4451975;28;656835;-69
2021/06/19 14:05:40;;;;;;;8.30;2.85;;;35.90;51.40;;;;;;4456471;28;657570;-70
2021/06/19 14:08:30;;;;;;;4.00;2.88;;;35.70;51.10;;;;;;4433607;28;656515;-69
2021/06/19 14:11:19;;;;;;;6.38;2.70;;;35.30;50.90;;;;;;4450614;28;656528;-69
2021/06/19 14:14:07;;;;;;;8.73;2.88;;;35.20;52.00;;;;;;4452330;28;656777;-70
2021/06/19 14:16:55;;;;;;;5.40;2.80;;;35.30;51.90;;;;;;4429548;28;658738;-70
2021/06/19 14:19:43;;;;;;;8.75;2.80;;;35.60;52.20;;;;;;4447667;28;656306;-69
2021/06/19 14:22:31;;;;;;;4.15;2.70;;;35.80;50.80;;;;;;4456133;28;657542;-69
2021/06/19 14:25:20;;;;;;;6.57;2.95;;;35.60;51.50;;;;;;4432640;28;657387;-69
2021/06/19 14:28:08;;;;;;;3.92;2.90;;;35.60;51.90;;;;;;4436951;28;656656;-69